sensor_id;sensor_type;location;lat;lon;timestamp;P1;durP1;ratioP1;P2;durP2;ratioP2
23714;SDS011;12036;50.858;4.472;2022-08-19T00:00:23;9.43;;;6.93;;
23714;SDS011;12036;50.858;4.472;2022-08-19T00:02:49;9.15;;;6.55;;
23714;SDS011;12036;50.858;4.472;2022-08-19T00:05:15;7.00;;;6.07;;
23714;SDS011;12036;50.858;4.472;2022-08-19T00:07:41;9.98;;;7.35;;
23714;SDS011;12036;50.858;4.472;2022-08-19T00:10:08;9.88;;;7.63;;
23714;SDS011;12036;50.858;4.472;2022-08-19T00:12:35;9.10;;;7.75;;
23714;SDS011;12036;50.858;4.472;2022-08-19T00:15:01;12.68;;;9.00;;
23714;SDS011;12036;50.858;4.472;2022-08-19T00:17:26;12.60;;;9.55;;
23714;SDS011;12036;50.858;4.472;2022-08-19T00:19:52;15.70;;;12.75;;
23714;SDS011;12036;50.858;4.472;2022-08-19T00:22:17;27.15;;;21.58;;
23714;SDS011;12036;50.858;4.472;2022-08-19T00:24:46;31.50;;;21.67;;
23714;SDS011;12036;50.858;4.472;2022-08-19T00:27:12;31.10;;;22.70;;
23714;SDS011;12036;50.858;4.472;2022-08-19T00:29:38;37.53;;;25.92;;
23714;SDS011;12036;50.858;4.472;2022-08-19T00:32:04;40.88;;;25.65;;
23714;SDS011;12036;50.858;4.472;2022-08-19T00:34:30;37.25;;;25.73;;
23714;SDS011;12036;50.858;4.472;2022-08-19T00:36:56;45.30;;;26.92;;
23714;SDS011;12036;50.858;4.472;2022-08-19T00:39:23;36.72;;;24.90;;
23714;SDS011;12036;50.858;4.472;2022-08-19T00:41:49;34.47;;;22.88;;
23714;SDS011;12036;50.858;4.472;2022-08-19T00:46:44;42.00;;;26.52;;
23714;SDS011;12036;50.858;4.472;2022-08-19T00:49:14;44.17;;;28.35;;
23714;SDS011;12036;50.858;4.472;2022-08-19T00:51:59;51.08;;;31.25;;
23714;SDS011;12036;50.858;4.472;2022-08-19T00:54:37;45.63;;;29.30;;
23714;SDS011;12036;50.858;4.472;2022-08-19T00:57:06;51.38;;;30.15;;
23714;SDS011;12036;50.858;4.472;2022-08-19T00:59:40;54.00;;;31.75;;
23714;SDS011;12036;50.858;4.472;2022-08-19T01:02:07;52.80;;;31.20;;
23714;SDS011;12036;50.858;4.472;2022-08-19T01:04:33;52.97;;;31.95;;
23714;SDS011;12036;50.858;4.472;2022-08-19T01:06:58;56.97;;;34.47;;
23714;SDS011;12036;50.858;4.472;2022-08-19T01:09:26;59.35;;;34.45;;
23714;SDS011;12036;50.858;4.472;2022-08-19T01:11:52;58.72;;;34.45;;
23714;SDS011;12036;50.858;4.472;2022-08-19T01:14:18;60.53;;;36.08;;
23714;SDS011;12036;50.858;4.472;2022-08-19T01:16:44;58.95;;;34.60;;
23714;SDS011;12036;50.858;4.472;2022-08-19T01:19:24;58.38;;;33.50;;
23714;SDS011;12036;50.858;4.472;2022-08-19T01:22:02;56.88;;;34.83;;
23714;SDS011;12036;50.858;4.472;2022-08-19T01:24:49;60.30;;;34.33;;
23714;SDS011;12036;50.858;4.472;2022-08-19T01:27:16;58.03;;;33.13;;
23714;SDS011;12036;50.858;4.472;2022-08-19T01:29:42;58.95;;;33.00;;
23714;SDS011;12036;50.858;4.472;2022-08-19T01:32:11;50.60;;;31.55;;
23714;SDS011;12036;50.858;4.472;2022-08-19T01:34:38;52.72;;;31.38;;
23714;SDS011;12036;50.858;4.472;2022-08-19T01:37:08;50.42;;;30.58;;
23714;SDS011;12036;50.858;4.472;2022-08-19T01:42:02;45.38;;;29.20;;
23714;SDS011;12036;50.858;4.472;2022-08-19T01:44:29;49.90;;;29.35;;
23714;SDS011;12036;50.858;4.472;2022-08-19T01:46:55;53.80;;;28.48;;
23714;SDS011;12036;50.858;4.472;2022-08-19T01:49:22;43.83;;;27.48;;
23714;SDS011;12036;50.858;4.472;2022-08-19T01:51:50;46.15;;;26.92;;
23714;SDS011;12036;50.858;4.472;2022-08-19T01:54:16;46.72;;;27.17;;
23714;SDS011;12036;50.858;4.472;2022-08-19T01:56:43;39.50;;;24.77;;
23714;SDS011;12036;50.858;4.472;2022-08-19T01:59:10;37.33;;;23.90;;
23714;SDS011;12036;50.858;4.472;2022-08-19T02:01:38;37.17;;;23.50;;
23714;SDS011;12036;50.858;4.472;2022-08-19T02:04:04;35.95;;;21.52;;
23714;SDS011;12036;50.858;4.472;2022-08-19T02:06:30;34.25;;;22.08;;
23714;SDS011;12036;50.858;4.472;2022-08-19T02:08:57;34.33;;;22.08;;
23714;SDS011;12036;50.858;4.472;2022-08-19T02:11:27;29.65;;;20.67;;
23714;SDS011;12036;50.858;4.472;2022-08-19T02:13:57;28.45;;;19.42;;
23714;SDS011;12036;50.858;4.472;2022-08-19T02:16:23;26.42;;;19.00;;
23714;SDS011;12036;50.858;4.472;2022-08-19T02:18:49;27.75;;;18.10;;
23714;SDS011;12036;50.858;4.472;2022-08-19T02:21:19;27.55;;;17.73;;
23714;SDS011;12036;50.858;4.472;2022-08-19T02:23:46;25.75;;;18.60;;
23714;SDS011;12036;50.858;4.472;2022-08-19T02:26:13;29.52;;;19.65;;
23714;SDS011;12036;50.858;4.472;2022-08-19T02:28:40;26.75;;;18.45;;
23714;SDS011;12036;50.858;4.472;2022-08-19T02:31:11;27.95;;;19.80;;
23714;SDS011;12036;50.858;4.472;2022-08-19T02:33:40;26.15;;;18.20;;
23714;SDS011;12036;50.858;4.472;2022-08-19T02:36:06;27.80;;;19.38;;
23714;SDS011;12036;50.858;4.472;2022-08-19T02:38:33;25.05;;;18.40;;
23714;SDS011;12036;50.858;4.472;2022-08-19T02:41:02;24.00;;;15.82;;
23714;SDS011;12036;50.858;4.472;2022-08-19T02:43:40;20.85;;;13.95;;
23714;SDS011;12036;50.858;4.472;2022-08-19T02:46:15;21.05;;;14.30;;
23714;SDS011;12036;50.858;4.472;2022-08-19T02:48:46;23.55;;;15.65;;
23714;SDS011;12036;50.858;4.472;2022-08-19T02:51:20;23.88;;;16.67;;
23714;SDS011;12036;50.858;4.472;2022-08-19T02:53:47;27.17;;;15.63;;
23714;SDS011;12036;50.858;4.472;2022-08-19T02:56:13;28.05;;;19.48;;
23714;SDS011;12036;50.858;4.472;2022-08-19T02:58:40;29.23;;;17.75;;
23714;SDS011;12036;50.858;4.472;2022-08-19T03:01:06;24.42;;;17.20;;
23714;SDS011;12036;50.858;4.472;2022-08-19T03:03:32;27.13;;;18.30;;
23714;SDS011;12036;50.858;4.472;2022-08-19T03:06:10;29.23;;;18.27;;
23714;SDS011;12036;50.858;4.472;2022-08-19T03:08:38;24.02;;;17.00;;
23714;SDS011;12036;50.858;4.472;2022-08-19T03:11:11;23.50;;;16.17;;
23714;SDS011;12036;50.858;4.472;2022-08-19T03:13:41;23.35;;;17.52;;
23714;SDS011;12036;50.858;4.472;2022-08-19T03:16:08;27.08;;;16.92;;
23714;SDS011;12036;50.858;4.472;2022-08-19T03:18:34;26.77;;;16.65;;
23714;SDS011;12036;50.858;4.472;2022-08-19T03:21:00;27.73;;;16.48;;
23714;SDS011;12036;50.858;4.472;2022-08-19T03:23:25;22.63;;;15.52;;
23714;SDS011;12036;50.858;4.472;2022-08-19T03:25:52;24.42;;;15.15;;
23714;SDS011;12036;50.858;4.472;2022-08-19T03:28:19;22.27;;;14.82;;
23714;SDS011;12036;50.858;4.472;2022-08-19T03:30:59;27.00;;;15.25;;
23714;SDS011;12036;50.858;4.472;2022-08-19T03:33:32;26.67;;;15.27;;
23714;SDS011;12036;50.858;4.472;2022-08-19T03:36:03;29.63;;;15.10;;
23714;SDS011;12036;50.858;4.472;2022-08-19T03:38:43;26.40;;;16.27;;
23714;SDS011;12036;50.858;4.472;2022-08-19T03:41:12;27.15;;;17.10;;
23714;SDS011;12036;50.858;4.472;2022-08-19T03:43:41;26.38;;;16.60;;
23714;SDS011;12036;50.858;4.472;2022-08-19T03:46:12;29.52;;;16.77;;
23714;SDS011;12036;50.858;4.472;2022-08-19T03:51:06;25.83;;;15.45;;
23714;SDS011;12036;50.858;4.472;2022-08-19T03:53:32;23.80;;;14.95;;
23714;SDS011;12036;50.858;4.472;2022-08-19T03:55:59;24.48;;;15.10;;
23714;SDS011;12036;50.858;4.472;2022-08-19T03:58:26;22.55;;;14.23;;
23714;SDS011;12036;50.858;4.472;2022-08-19T04:00:54;26.98;;;15.00;;
23714;SDS011;12036;50.858;4.472;2022-08-19T04:03:24;22.95;;;13.95;;
23714;SDS011;12036;50.858;4.472;2022-08-19T04:05:52;23.95;;;13.77;;
23714;SDS011;12036;50.858;4.472;2022-08-19T04:08:18;21.73;;;13.93;;
23714;SDS011;12036;50.858;4.472;2022-08-19T04:10:47;22.35;;;15.68;;
23714;SDS011;12036;50.858;4.472;2022-08-19T04:13:14;27.73;;;15.88;;
23714;SDS011;12036;50.858;4.472;2022-08-19T04:15:41;24.80;;;16.02;;
23714;SDS011;12036;50.858;4.472;2022-08-19T04:18:09;28.75;;;15.35;;
23714;SDS011;12036;50.858;4.472;2022-08-19T04:20:39;26.98;;;15.55;;
23714;SDS011;12036;50.858;4.472;2022-08-19T04:23:06;30.05;;;16.65;;
23714;SDS011;12036;50.858;4.472;2022-08-19T04:25:39;26.77;;;16.35;;
23714;SDS011;12036;50.858;4.472;2022-08-19T04:28:07;24.30;;;16.33;;
23714;SDS011;12036;50.858;4.472;2022-08-19T04:30:45;29.75;;;16.27;;
23714;SDS011;12036;50.858;4.472;2022-08-19T04:33:13;26.58;;;15.70;;
23714;SDS011;12036;50.858;4.472;2022-08-19T04:35:40;24.38;;;15.02;;
23714;SDS011;12036;50.858;4.472;2022-08-19T04:40:46;23.10;;;13.25;;
23714;SDS011;12036;50.858;4.472;2022-08-19T04:43:31;30.50;;;14.82;;
23714;SDS011;12036;50.858;4.472;2022-08-19T04:45:57;31.90;;;14.10;;
23714;SDS011;12036;50.858;4.472;2022-08-19T04:48:23;27.15;;;14.68;;
23714;SDS011;12036;50.858;4.472;2022-08-19T04:50:52;20.17;;;13.30;;
23714;SDS011;12036;50.858;4.472;2022-08-19T04:53:23;25.35;;;14.27;;
23714;SDS011;12036;50.858;4.472;2022-08-19T04:55:54;21.35;;;13.60;;
23714;SDS011;12036;50.858;4.472;2022-08-19T04:58:22;22.27;;;13.25;;
23714;SDS011;12036;50.858;4.472;2022-08-19T05:00:49;23.00;;;12.18;;
23714;SDS011;12036;50.858;4.472;2022-08-19T05:03:15;20.27;;;12.45;;
23714;SDS011;12036;50.858;4.472;2022-08-19T05:05:42;20.40;;;12.73;;
23714;SDS011;12036;50.858;4.472;2022-08-19T05:08:09;23.15;;;12.85;;
23714;SDS011;12036;50.858;4.472;2022-08-19T05:10:36;19.80;;;11.38;;
23714;SDS011;12036;50.858;4.472;2022-08-19T05:13:03;19.63;;;11.77;;
23714;SDS011;12036;50.858;4.472;2022-08-19T05:15:29;24.52;;;12.15;;
23714;SDS011;12036;50.858;4.472;2022-08-19T05:17:55;20.38;;;11.70;;
23714;SDS011;12036;50.858;4.472;2022-08-19T05:20:40;21.30;;;11.25;;
23714;SDS011;12036;50.858;4.472;2022-08-19T05:23:24;18.73;;;12.02;;
23714;SDS011;12036;50.858;4.472;2022-08-19T05:25:50;27.35;;;12.43;;
23714;SDS011;12036;50.858;4.472;2022-08-19T05:28:16;20.15;;;12.05;;
23714;SDS011;12036;50.858;4.472;2022-08-19T05:30:43;23.25;;;13.10;;
23714;SDS011;12036;50.858;4.472;2022-08-19T05:33:10;25.50;;;13.43;;
23714;SDS011;12036;50.858;4.472;2022-08-19T05:35:37;25.08;;;13.30;;
23714;SDS011;12036;50.858;4.472;2022-08-19T05:38:04;26.40;;;13.18;;
23714;SDS011;12036;50.858;4.472;2022-08-19T05:40:33;19.45;;;13.05;;
23714;SDS011;12036;50.858;4.472;2022-08-19T05:43:01;22.23;;;13.32;;
23714;SDS011;12036;50.858;4.472;2022-08-19T05:45:28;21.38;;;13.57;;
23714;SDS011;12036;50.858;4.472;2022-08-19T05:47:54;23.05;;;14.25;;
23714;SDS011;12036;50.858;4.472;2022-08-19T05:50:20;23.08;;;14.32;;
23714;SDS011;12036;50.858;4.472;2022-08-19T05:52:46;18.83;;;12.63;;
23714;SDS011;12036;50.858;4.472;2022-08-19T05:55:12;23.20;;;12.60;;
23714;SDS011;12036;50.858;4.472;2022-08-19T05:57:38;24.50;;;13.48;;
23714;SDS011;12036;50.858;4.472;2022-08-19T06:00:05;22.88;;;12.10;;
23714;SDS011;12036;50.858;4.472;2022-08-19T06:02:35;19.73;;;12.07;;
23714;SDS011;12036;50.858;4.472;2022-08-19T06:05:01;17.17;;;11.25;;
23714;SDS011;12036;50.858;4.472;2022-08-19T06:07:28;14.90;;;10.13;;
23714;SDS011;12036;50.858;4.472;2022-08-19T06:09:54;18.00;;;10.27;;
23714;SDS011;12036;50.858;4.472;2022-08-19T06:12:20;14.52;;;9.95;;
23714;SDS011;12036;50.858;4.472;2022-08-19T06:14:55;20.30;;;10.63;;
23714;SDS011;12036;50.858;4.472;2022-08-19T06:17:21;16.10;;;10.25;;
23714;SDS011;12036;50.858;4.472;2022-08-19T06:19:49;16.73;;;10.02;;
23714;SDS011;12036;50.858;4.472;2022-08-19T06:22:15;17.90;;;9.05;;
23714;SDS011;12036;50.858;4.472;2022-08-19T06:24:41;17.92;;;8.75;;
23714;SDS011;12036;50.858;4.472;2022-08-19T06:27:07;14.40;;;8.82;;
23714;SDS011;12036;50.858;4.472;2022-08-19T06:29:33;12.43;;;7.30;;
23714;SDS011;12036;50.858;4.472;2022-08-19T06:32:00;14.32;;;8.10;;
23714;SDS011;12036;50.858;4.472;2022-08-19T06:34:28;12.50;;;7.57;;
23714;SDS011;12036;50.858;4.472;2022-08-19T06:36:57;13.63;;;7.05;;
23714;SDS011;12036;50.858;4.472;2022-08-19T06:39:26;12.02;;;7.20;;
23714;SDS011;12036;50.858;4.472;2022-08-19T06:41:56;12.23;;;6.88;;
23714;SDS011;12036;50.858;4.472;2022-08-19T06:44:26;10.02;;;6.03;;
23714;SDS011;12036;50.858;4.472;2022-08-19T06:46:53;10.30;;;6.25;;
23714;SDS011;12036;50.858;4.472;2022-08-19T06:49:20;9.68;;;5.15;;
23714;SDS011;12036;50.858;4.472;2022-08-19T06:51:46;9.45;;;6.05;;
23714;SDS011;12036;50.858;4.472;2022-08-19T06:54:14;9.07;;;5.68;;
23714;SDS011;12036;50.858;4.472;2022-08-19T06:56:43;7.55;;;5.15;;
23714;SDS011;12036;50.858;4.472;2022-08-19T06:59:11;8.98;;;4.97;;
23714;SDS011;12036;50.858;4.472;2022-08-19T07:01:51;7.00;;;4.78;;
23714;SDS011;12036;50.858;4.472;2022-08-19T07:04:19;8.20;;;4.95;;
23714;SDS011;12036;50.858;4.472;2022-08-19T07:06:47;9.55;;;5.38;;
23714;SDS011;12036;50.858;4.472;2022-08-19T07:09:16;11.50;;;5.05;;
23714;SDS011;12036;50.858;4.472;2022-08-19T07:11:46;12.40;;;4.97;;
23714;SDS011;12036;50.858;4.472;2022-08-19T07:14:14;7.80;;;5.00;;
23714;SDS011;12036;50.858;4.472;2022-08-19T07:16:42;8.15;;;4.38;;
23714;SDS011;12036;50.858;4.472;2022-08-19T07:19:10;10.82;;;4.80;;
23714;SDS011;12036;50.858;4.472;2022-08-19T07:21:37;10.05;;;4.80;;
23714;SDS011;12036;50.858;4.472;2022-08-19T07:24:03;13.48;;;5.28;;
23714;SDS011;12036;50.858;4.472;2022-08-19T07:26:31;7.68;;;4.88;;
23714;SDS011;12036;50.858;4.472;2022-08-19T07:29:03;10.07;;;5.13;;
23714;SDS011;12036;50.858;4.472;2022-08-19T07:31:29;9.98;;;5.57;;
23714;SDS011;12036;50.858;4.472;2022-08-19T07:33:56;9.50;;;5.70;;
23714;SDS011;12036;50.858;4.472;2022-08-19T07:36:25;10.75;;;5.55;;
23714;SDS011;12036;50.858;4.472;2022-08-19T07:38:57;8.25;;;5.47;;
23714;SDS011;12036;50.858;4.472;2022-08-19T07:41:25;8.52;;;5.65;;
23714;SDS011;12036;50.858;4.472;2022-08-19T07:43:54;13.93;;;5.47;;
23714;SDS011;12036;50.858;4.472;2022-08-19T07:46:20;12.38;;;5.30;;
23714;SDS011;12036;50.858;4.472;2022-08-19T07:48:47;11.93;;;5.80;;
23714;SDS011;12036;50.858;4.472;2022-08-19T07:51:16;9.07;;;5.28;;
23714;SDS011;12036;50.858;4.472;2022-08-19T07:53:45;11.48;;;5.35;;
23714;SDS011;12036;50.858;4.472;2022-08-19T07:56:13;9.00;;;4.70;;
23714;SDS011;12036;50.858;4.472;2022-08-19T07:58:41;9.48;;;4.45;;
23714;SDS011;12036;50.858;4.472;2022-08-19T08:01:09;7.43;;;4.38;;
23714;SDS011;12036;50.858;4.472;2022-08-19T08:03:38;5.97;;;3.97;;
23714;SDS011;12036;50.858;4.472;2022-08-19T08:06:22;11.38;;;4.05;;
23714;SDS011;12036;50.858;4.472;2022-08-19T08:09:07;8.43;;;4.38;;
23714;SDS011;12036;50.858;4.472;2022-08-19T08:11:36;10.10;;;5.30;;
23714;SDS011;12036;50.858;4.472;2022-08-19T08:14:06;7.57;;;4.05;;
23714;SDS011;12036;50.858;4.472;2022-08-19T08:16:36;8.43;;;4.55;;
23714;SDS011;12036;50.858;4.472;2022-08-19T08:19:03;7.43;;;4.50;;
23714;SDS011;12036;50.858;4.472;2022-08-19T08:21:31;8.02;;;4.03;;
23714;SDS011;12036;50.858;4.472;2022-08-19T08:23:58;6.13;;;3.88;;
23714;SDS011;12036;50.858;4.472;2022-08-19T08:26:23;9.48;;;4.30;;
23714;SDS011;12036;50.858;4.472;2022-08-19T08:28:50;5.55;;;4.35;;
23714;SDS011;12036;50.858;4.472;2022-08-19T08:31:16;5.97;;;3.88;;
23714;SDS011;12036;50.858;4.472;2022-08-19T08:33:43;5.72;;;4.20;;
23714;SDS011;12036;50.858;4.472;2022-08-19T08:36:09;6.88;;;3.53;;
23714;SDS011;12036;50.858;4.472;2022-08-19T08:38:36;7.28;;;5.03;;
23714;SDS011;12036;50.858;4.472;2022-08-19T08:41:06;8.55;;;4.10;;
23714;SDS011;12036;50.858;4.472;2022-08-19T08:43:48;4.97;;;3.10;;
23714;SDS011;12036;50.858;4.472;2022-08-19T08:46:21;8.80;;;4.60;;
23714;SDS011;12036;50.858;4.472;2022-08-19T08:49:06;7.80;;;4.28;;
23714;SDS011;12036;50.858;4.472;2022-08-19T08:51:44;6.78;;;4.55;;
23714;SDS011;12036;50.858;4.472;2022-08-19T08:54:18;5.95;;;4.63;;
23714;SDS011;12036;50.858;4.472;2022-08-19T08:56:48;6.20;;;3.88;;
23714;SDS011;12036;50.858;4.472;2022-08-19T08:59:20;5.65;;;3.50;;
23714;SDS011;12036;50.858;4.472;2022-08-19T09:01:51;6.13;;;4.03;;
23714;SDS011;12036;50.858;4.472;2022-08-19T09:04:16;7.50;;;4.32;;
23714;SDS011;12036;50.858;4.472;2022-08-19T09:09:41;8.27;;;4.25;;
23714;SDS011;12036;50.858;4.472;2022-08-19T09:12:33;7.97;;;3.65;;
23714;SDS011;12036;50.858;4.472;2022-08-19T09:15:04;6.97;;;4.47;;
23714;SDS011;12036;50.858;4.472;2022-08-19T09:20:06;6.80;;;4.03;;
23714;SDS011;12036;50.858;4.472;2022-08-19T09:22:33;5.80;;;3.85;;
23714;SDS011;12036;50.858;4.472;2022-08-19T09:25:00;6.40;;;3.90;;
23714;SDS011;12036;50.858;4.472;2022-08-19T09:27:27;6.63;;;3.90;;
23714;SDS011;12036;50.858;4.472;2022-08-19T09:29:53;7.30;;;4.13;;
23714;SDS011;12036;50.858;4.472;2022-08-19T09:32:20;8.65;;;4.13;;
23714;SDS011;12036;50.858;4.472;2022-08-19T09:34:46;5.97;;;3.95;;
23714;SDS011;12036;50.858;4.472;2022-08-19T09:37:12;6.63;;;3.58;;
23714;SDS011;12036;50.858;4.472;2022-08-19T09:39:38;7.50;;;3.83;;
23714;SDS011;12036;50.858;4.472;2022-08-19T09:42:05;6.72;;;3.55;;
23714;SDS011;12036;50.858;4.472;2022-08-19T09:44:36;6.03;;;4.13;;
23714;SDS011;12036;50.858;4.472;2022-08-19T09:47:03;4.45;;;3.20;;
23714;SDS011;12036;50.858;4.472;2022-08-19T09:49:29;5.25;;;3.78;;
23714;SDS011;12036;50.858;4.472;2022-08-19T09:51:56;7.25;;;3.50;;
23714;SDS011;12036;50.858;4.472;2022-08-19T09:54:22;5.63;;;3.55;;
23714;SDS011;12036;50.858;4.472;2022-08-19T09:56:48;10.27;;;3.92;;
23714;SDS011;12036;50.858;4.472;2022-08-19T09:59:14;6.90;;;3.40;;
23714;SDS011;12036;50.858;4.472;2022-08-19T10:01:40;8.05;;;3.80;;
23714;SDS011;12036;50.858;4.472;2022-08-19T10:04:06;6.93;;;3.67;;
23714;SDS011;12036;50.858;4.472;2022-08-19T10:06:36;6.43;;;3.33;;
23714;SDS011;12036;50.858;4.472;2022-08-19T10:09:04;6.55;;;3.63;;
23714;SDS011;12036;50.858;4.472;2022-08-19T10:11:33;6.43;;;3.33;;
23714;SDS011;12036;50.858;4.472;2022-08-19T10:14:00;5.50;;;3.47;;
23714;SDS011;12036;50.858;4.472;2022-08-19T10:16:26;5.20;;;3.42;;
23714;SDS011;12036;50.858;4.472;2022-08-19T10:18:53;4.13;;;3.00;;
23714;SDS011;12036;50.858;4.472;2022-08-19T10:21:20;4.43;;;3.30;;
23714;SDS011;12036;50.858;4.472;2022-08-19T10:23:49;6.45;;;3.10;;
23714;SDS011;12036;50.858;4.472;2022-08-19T10:26:22;4.80;;;3.10;;
23714;SDS011;12036;50.858;4.472;2022-08-19T10:28:50;3.75;;;2.80;;
23714;SDS011;12036;50.858;4.472;2022-08-19T10:31:17;3.58;;;2.50;;
23714;SDS011;12036;50.858;4.472;2022-08-19T10:33:45;4.25;;;2.58;;
23714;SDS011;12036;50.858;4.472;2022-08-19T10:36:13;4.40;;;2.63;;
23714;SDS011;12036;50.858;4.472;2022-08-19T10:38:45;2.90;;;2.60;;
23714;SDS011;12036;50.858;4.472;2022-08-19T10:41:15;5.25;;;2.50;;
23714;SDS011;12036;50.858;4.472;2022-08-19T10:43:47;4.05;;;2.58;;
23714;SDS011;12036;50.858;4.472;2022-08-19T10:46:15;4.50;;;2.80;;
23714;SDS011;12036;50.858;4.472;2022-08-19T10:48:41;4.18;;;2.80;;
23714;SDS011;12036;50.858;4.472;2022-08-19T10:51:08;3.65;;;3.10;;
23714;SDS011;12036;50.858;4.472;2022-08-19T10:53:53;4.55;;;3.53;;
23714;SDS011;12036;50.858;4.472;2022-08-19T10:56:20;4.57;;;3.67;;
23714;SDS011;12036;50.858;4.472;2022-08-19T10:59:04;5.50;;;3.85;;
23714;SDS011;12036;50.858;4.472;2022-08-19T11:01:30;7.35;;;3.83;;
23714;SDS011;12036;50.858;4.472;2022-08-19T11:03:58;6.63;;;4.07;;
23714;SDS011;12036;50.858;4.472;2022-08-19T11:06:25;7.10;;;4.10;;
23714;SDS011;12036;50.858;4.472;2022-08-19T11:08:51;6.93;;;4.43;;
23714;SDS011;12036;50.858;4.472;2022-08-19T11:11:18;6.15;;;4.70;;
23714;SDS011;12036;50.858;4.472;2022-08-19T11:13:43;7.78;;;5.07;;
23714;SDS011;12036;50.858;4.472;2022-08-19T11:16:14;7.00;;;4.30;;
23714;SDS011;12036;50.858;4.472;2022-08-19T11:18:43;6.32;;;4.82;;
23714;SDS011;12036;50.858;4.472;2022-08-19T11:23:45;6.43;;;4.95;;
23714;SDS011;12036;50.858;4.472;2022-08-19T11:26:12;8.70;;;5.20;;
23714;SDS011;12036;50.858;4.472;2022-08-19T11:28:39;6.72;;;5.18;;
23714;SDS011;12036;50.858;4.472;2022-08-19T11:31:09;6.63;;;4.88;;
23714;SDS011;12036;50.858;4.472;2022-08-19T11:33:39;8.93;;;5.40;;
23714;SDS011;12036;50.858;4.472;2022-08-19T11:36:05;7.65;;;4.97;;
23714;SDS011;12036;50.858;4.472;2022-08-19T11:38:31;7.30;;;4.57;;
23714;SDS011;12036;50.858;4.472;2022-08-19T11:40:57;5.53;;;4.63;;
23714;SDS011;12036;50.858;4.472;2022-08-19T11:43:24;6.78;;;3.78;;
23714;SDS011;12036;50.858;4.472;2022-08-19T11:45:52;7.15;;;5.25;;
23714;SDS011;12036;50.858;4.472;2022-08-19T11:48:18;11.77;;;5.55;;
23714;SDS011;12036;50.858;4.472;2022-08-19T11:50:47;7.40;;;5.88;;
23714;SDS011;12036;50.858;4.472;2022-08-19T11:53:17;7.88;;;6.18;;
23714;SDS011;12036;50.858;4.472;2022-08-19T11:55:45;8.77;;;6.70;;
23714;SDS011;12036;50.858;4.472;2022-08-19T11:58:12;6.95;;;6.25;;
23714;SDS011;12036;50.858;4.472;2022-08-19T12:00:39;9.40;;;6.10;;
23714;SDS011;12036;50.858;4.472;2022-08-19T12:03:05;7.63;;;6.20;;
23714;SDS011;12036;50.858;4.472;2022-08-19T12:05:31;11.52;;;6.32;;
23714;SDS011;12036;50.858;4.472;2022-08-19T12:07:57;8.63;;;5.95;;
23714;SDS011;12036;50.858;4.472;2022-08-19T12:10:23;11.23;;;6.18;;
23714;SDS011;12036;50.858;4.472;2022-08-19T12:12:49;9.10;;;5.63;;
23714;SDS011;12036;50.858;4.472;2022-08-19T12:15:15;7.50;;;5.55;;
23714;SDS011;12036;50.858;4.472;2022-08-19T12:17:41;7.70;;;4.88;;
23714;SDS011;12036;50.858;4.472;2022-08-19T12:20:08;9.55;;;5.70;;
23714;SDS011;12036;50.858;4.472;2022-08-19T12:22:36;8.63;;;4.82;;
23714;SDS011;12036;50.858;4.472;2022-08-19T12:25:03;6.75;;;4.65;;
23714;SDS011;12036;50.858;4.472;2022-08-19T12:27:30;6.90;;;4.63;;
23714;SDS011;12036;50.858;4.472;2022-08-19T12:29:56;6.47;;;3.92;;
23714;SDS011;12036;50.858;4.472;2022-08-19T12:32:22;5.65;;;4.00;;
23714;SDS011;12036;50.858;4.472;2022-08-19T12:34:49;3.75;;;3.33;;
23714;SDS011;12036;50.858;4.472;2022-08-19T12:37:15;5.22;;;3.88;;
23714;SDS011;12036;50.858;4.472;2022-08-19T12:39:41;6.13;;;3.40;;
23714;SDS011;12036;50.858;4.472;2022-08-19T12:42:09;4.35;;;3.08;;
23714;SDS011;12036;50.858;4.472;2022-08-19T12:44:37;6.50;;;2.83;;
23714;SDS011;12036;50.858;4.472;2022-08-19T12:47:04;5.70;;;3.13;;
23714;SDS011;12036;50.858;4.472;2022-08-19T12:49:31;5.25;;;2.72;;
23714;SDS011;12036;50.858;4.472;2022-08-19T12:51:59;5.70;;;3.15;;
23714;SDS011;12036;50.858;4.472;2022-08-19T12:54:25;3.03;;;2.42;;
23714;SDS011;12036;50.858;4.472;2022-08-19T12:56:51;3.35;;;2.75;;
23714;SDS011;12036;50.858;4.472;2022-08-19T12:59:17;3.75;;;2.28;;
23714;SDS011;12036;50.858;4.472;2022-08-19T13:01:43;7.28;;;3.20;;
23714;SDS011;12036;50.858;4.472;2022-08-19T13:04:09;4.30;;;2.45;;
23714;SDS011;12036;50.858;4.472;2022-08-19T13:06:35;5.55;;;2.60;;
23714;SDS011;12036;50.858;4.472;2022-08-19T13:09:02;4.32;;;2.22;;
23714;SDS011;12036;50.858;4.472;2022-08-19T13:11:29;3.33;;;1.42;;
23714;SDS011;12036;50.858;4.472;2022-08-19T13:13:57;3.22;;;1.58;;
23714;SDS011;12036;50.858;4.472;2022-08-19T13:16:23;1.85;;;1.70;;
23714;SDS011;12036;50.858;4.472;2022-08-19T13:18:51;4.15;;;1.38;;
23714;SDS011;12036;50.858;4.472;2022-08-19T13:21:17;3.15;;;1.70;;
23714;SDS011;12036;50.858;4.472;2022-08-19T13:23:44;7.30;;;1.83;;
23714;SDS011;12036;50.858;4.472;2022-08-19T13:26:11;6.47;;;1.95;;
23714;SDS011;12036;50.858;4.472;2022-08-19T13:28:38;1.58;;;1.45;;
23714;SDS011;12036;50.858;4.472;2022-08-19T13:31:23;1.83;;;1.30;;
23714;SDS011;12036;50.858;4.472;2022-08-19T13:34:08;2.65;;;1.30;;
23714;SDS011;12036;50.858;4.472;2022-08-19T13:36:35;5.43;;;1.45;;
23714;SDS011;12036;50.858;4.472;2022-08-19T13:39:02;2.33;;;1.70;;
23714;SDS011;12036;50.858;4.472;2022-08-19T13:41:29;2.35;;;1.58;;
23714;SDS011;12036;50.858;4.472;2022-08-19T13:43:55;1.40;;;1.23;;
23714;SDS011;12036;50.858;4.472;2022-08-19T13:46:20;2.47;;;1.30;;
23714;SDS011;12036;50.858;4.472;2022-08-19T13:48:46;1.60;;;1.20;;
23714;SDS011;12036;50.858;4.472;2022-08-19T13:51:13;2.05;;;0.98;;
23714;SDS011;12036;50.858;4.472;2022-08-19T13:53:42;2.20;;;1.02;;
23714;SDS011;12036;50.858;4.472;2022-08-19T13:56:12;2.70;;;1.00;;
23714;SDS011;12036;50.858;4.472;2022-08-19T13:58:40;4.10;;;1.25;;
23714;SDS011;12036;50.858;4.472;2022-08-19T14:01:06;3.17;;;1.20;;
23714;SDS011;12036;50.858;4.472;2022-08-19T14:03:33;4.25;;;1.10;;
23714;SDS011;12036;50.858;4.472;2022-08-19T14:05:59;1.83;;;1.30;;
23714;SDS011;12036;50.858;4.472;2022-08-19T14:08:25;2.67;;;1.10;;
23714;SDS011;12036;50.858;4.472;2022-08-19T14:10:53;2.85;;;1.00;;
23714;SDS011;12036;50.858;4.472;2022-08-19T14:13:20;2.00;;;1.30;;
23714;SDS011;12036;50.858;4.472;2022-08-19T14:15:47;3.67;;;1.20;;
23714;SDS011;12036;50.858;4.472;2022-08-19T14:18:14;1.48;;;1.00;;
23714;SDS011;12036;50.858;4.472;2022-08-19T14:20:41;1.52;;;1.23;;
23714;SDS011;12036;50.858;4.472;2022-08-19T14:23:07;1.48;;;1.23;;
23714;SDS011;12036;50.858;4.472;2022-08-19T14:25:33;2.30;;;1.45;;
23714;SDS011;12036;50.858;4.472;2022-08-19T14:27:59;4.68;;;1.42;;
23714;SDS011;12036;50.858;4.472;2022-08-19T14:30:26;4.30;;;1.17;;
23714;SDS011;12036;50.858;4.472;2022-08-19T14:32:54;2.58;;;1.27;;
23714;SDS011;12036;50.858;4.472;2022-08-19T14:35:21;3.13;;;1.38;;
23714;SDS011;12036;50.858;4.472;2022-08-19T14:37:47;1.70;;;1.20;;
23714;SDS011;12036;50.858;4.472;2022-08-19T14:40:16;2.05;;;1.30;;
23714;SDS011;12036;50.858;4.472;2022-08-19T14:42:50;2.85;;;1.50;;
23714;SDS011;12036;50.858;4.472;2022-08-19T14:45:29;5.65;;;2.00;;
23714;SDS011;12036;50.858;4.472;2022-08-19T14:47:56;5.90;;;1.33;;
23714;SDS011;12036;50.858;4.472;2022-08-19T14:50:22;2.03;;;1.10;;
23714;SDS011;12036;50.858;4.472;2022-08-19T14:52:48;1.50;;;0.70;;
23714;SDS011;12036;50.858;4.472;2022-08-19T14:55:15;2.60;;;0.88;;
23714;SDS011;12036;50.858;4.472;2022-08-19T14:57:42;2.47;;;0.50;;
23714;SDS011;12036;50.858;4.472;2022-08-19T15:00:08;1.10;;;0.70;;